Time,TemperatureF,DewpointF,PressureIn,WindDirection,WindDirectionDegrees,WindSpeedMPH,WindSpeedGustMPH,Humidity,HourlyPrecipIn,Conditions,Clouds,dailyrainin,SoftwareType,DateUTC
2013-03-10 00:01:00,30.0,13.6,30.33,WSW,237,2.0,0.0,50,0.00,,,-99.99,FreeWX-Wi 1.01,2013-03-10 05:01:00,
2013-03-10 00:06:00,29.8,14.0,30.33,WSW,255,1.0,0.0,51,0.00,,,-99.99,FreeWX-Wi 1.01,2013-03-10 05:06:00,
2013-03-10 00:11:00,29.8,14.9,30.33,WSW,258,1.0,4.0,53,0.00,,,-99.99,FreeWX-Wi 1.01,2013-03-10 05:11:00,
2013-03-10 00:16:00,29.5,14.0,30.33,North,-999,0.0,3.1,52,0.00,,,-99.99,FreeWX-Wi 1.01,2013-03-10 05:16:00,
2013-03-10 00:21:00,29.5,15.3,30.30,North,-999,0.0,5.8,55,0.00,,,-99.99,FreeWX-Wi 1.01,2013-03-10 05:21:00,
2013-03-10 00:26:00,30.2,15.1,30.30,SSW,203,1.0,6.3,53,0.00,,,-99.99,FreeWX-Wi 1.01,2013-03-10 05:26:00,
2013-03-10 00:31:00,31.3,15.3,30.30,South,184,2.0,8.1,51,0.00,,,-99.99,FreeWX-Wi 1.01,2013-03-10 05:31:00,
2013-03-10 00:36:00,31.6,15.1,30.30,South,172,3.0,7.6,50,0.00,,,-99.99,FreeWX-Wi 1.01,2013-03-10 05:36:00,
2013-03-10 00:41:00,31.8,15.3,30.30,South,170,4.0,7.6,50,0.00,,,-99.99,FreeWX-Wi 1.01,2013-03-10 05:41:00,
2013-03-10 00:46:00,32.0,15.1,30.30,South,173,4.0,6.3,49,0.00,,,-99.99,FreeWX-Wi 1.01,2013-03-10 05:46:00,
2013-03-10 00:51:00,32.0,15.1,30.30,South,175,4.0,6.7,49,0.00,,,-99.99,FreeWX-Wi 1.01,2013-03-10 05:51:00,
2013-03-10 00:56:00,31.8,14.9,30.30,South,181,4.0,4.0,49,0.00,,,-99.99,FreeWX-Wi 1.01,2013-03-10 05:56:00,
2013-03-10 01:01:00,31.1,15.1,30.30,South,179,4.0,8.3,51,0.00,,,-99.99,FreeWX-Wi 1.01,2013-03-10 06:01:00,
2013-03-10 01:06:00,31.5,15.1,30.30,South,176,4.0,8.1,50,0.00,,,-99.99,FreeWX-Wi 1.01,2013-03-10 06:06:00,
2013-03-10 01:11:00,31.6,15.1,30.30,South,177,4.0,8.3,50,0.00,,,-99.99,FreeWX-Wi 1.01,2013-03-10 06:11:00,
2013-03-10 01:16:00,31.6,15.1,30.30,South,175,4.0,8.7,50,0.00,,,-99.99,FreeWX-Wi 1.01,2013-03-10 06:16:00,
2013-03-10 01:21:00,32.0,15.1,30.30,South,170,5.0,10.1,49,0.00,,,-99.99,FreeWX-Wi 1.01,2013-03-10 06:21:00,
2013-03-10 01:26:00,32.4,14.4,30.30,SSE,166,6.0,10.5,47,0.00,,,-99.99,FreeWX-Wi 1.01,2013-03-10 06:26:00,
2013-03-10 01:31:00,32.5,14.0,30.30,South,173,6.0,7.6,46,0.00,,,-99.99,FreeWX-Wi 1.01,2013-03-10 06:31:00,
2013-03-10 01:36:00,32.4,14.0,30.30,South,183,5.0,5.0,46,0.00,,,-99.99,FreeWX-Wi 1.01,2013-03-10 06:36:00,
2013-03-10 01:41:00,31.6,13.8,30.30,South,191,4.0,4.0,47,0.00,,,-99.99,FreeWX-Wi 1.01,2013-03-10 06:41:00,
2013-03-10 01:46:00,31.1,13.3,30.30,SSW,201,4.0,4.0,47,0.00,,,-99.99,FreeWX-Wi 1.01,2013-03-10 06:46:00,
2013-03-10 01:51:00,31.1,14.2,30.30,SSW,212,3.0,4.0,49,0.00,,,-99.99,FreeWX-Wi 1.01,2013-03-10 06:51:00,
2013-03-10 01:56:00,30.6,14.2,30.30,SW,220,2.0,3.1,50,0.00,,,-99.99,FreeWX-Wi 1.01,2013-03-10 06:56:00,
2013-03-10 03:01:00,31.1,15.1,30.30,SW,215,2.0,6.3,51,0.00,,,-99.99,FreeWX-Wi 1.01,2013-03-10 07:01:00,
2013-03-10 03:06:00,32.2,14.7,30.30,SSW,206,3.0,8.3,48,0.00,,,-99.99,FreeWX-Wi 1.01,2013-03-10 07:06:00,
2013-03-10 03:11:00,32.5,14.0,30.30,SSW,195,4.0,8.7,46,0.00,,,-99.99,FreeWX-Wi 1.01,2013-03-10 07:11:00,
2013-03-10 03:16:00,32.4,14.4,30.30,South,182,5.0,10.5,47,0.00,,,-99.99,FreeWX-Wi 1.01,2013-03-10 07:16:00,
2013-03-10 03:21:00,32.2,14.7,30.27,South,171,5.0,10.5,48,0.00,,,-99.99,FreeWX-Wi 1.01,2013-03-10 07:21:00,
2013-03-10 03:26:00,32.0,15.1,30.27,SSE,160,6.0,8.7,49,0.00,,,-99.99,FreeWX-Wi 1.01,2013-03-10 07:26:00,
2013-03-10 03:31:00,32.2,15.3,30.27,SSE,157,7.0,10.1,49,0.00,,,-99.99,FreeWX-Wi 1.01,2013-03-10 07:31:00,
2013-03-10 03:36:00,32.4,14.9,30.27,SSE,157,7.0,8.7,48,0.00,,,-99.99,FreeWX-Wi 1.01,2013-03-10 07:36:00,
2013-03-10 03:41:00,32.5,14.5,30.27,SSE,159,6.0,7.2,47,0.00,,,-99.99,FreeWX-Wi 1.01,2013-03-10 07:41:00,
2013-03-10 03:46:00,32.4,14.4,30.27,SSE,159,6.0,6.3,47,0.00,,,-99.99,FreeWX-Wi 1.01,2013-03-10 07:46:00,
2013-03-10 03:51:00,32.4,14.4,30.27,SSE,155,5.0,5.8,47,0.00,,,-99.99,FreeWX-Wi 1.01,2013-03-10 07:51:00,
2013-03-10 03:56:00,32.4,14.4,30.27,SSE,160,4.0,4.0,47,0.00,,,-99.99,FreeWX-Wi 1.01,2013-03-10 07:56:00,
2013-03-10 04:01:00,32.4,14.4,30.27,South,174,3.0,5.4,47,0.00,,,-99.99,FreeWX-Wi 1.01,2013-03-10 08:01:00,
2013-03-10 04:06:00,32.4,14.9,30.27,South,177,2.0,4.9,48,0.00,,,-99.99,FreeWX-Wi 1.01,2013-03-10 08:06:00,
2013-03-10 04:11:00,32.4,14.9,30.27,South,177,2.0,5.4,48,0.00,,,-99.99,FreeWX-Wi 1.01,2013-03-10 08:11:00,
2013-03-10 04:16:00,32.2,14.7,30.27,SSW,204,2.0,5.8,48,0.00,,,-99.99,FreeWX-Wi 1.01,2013-03-10 08:16:00,
2013-03-10 04:21:00,32.0,14.5,30.27,WSW,238,2.0,3.6,48,0.00,,,-99.99,FreeWX-Wi 1.01,2013-03-10 08:21:00,
2013-03-10 04:26:00,31.5,15.4,30.27,WSW,258,2.0,3.1,51,0.00,,,-99.99,FreeWX-Wi 1.01,2013-03-10 08:26:00,
2013-03-10 04:31:00,31.3,15.8,30.27,West,273,2.0,7.6,52,0.00,,,-99.99,FreeWX-Wi 1.01,2013-03-10 08:31:00,
2013-03-10 04:36:00,30.9,16.3,30.27,West,271,2.0,6.3,54,0.00,,,-99.99,FreeWX-Wi 1.01,2013-03-10 08:36:00,
2013-03-10 04:41:00,31.1,16.0,30.27,West,261,2.0,5.8,53,0.00,,,-99.99,FreeWX-Wi 1.01,2013-03-10 08:41:00,
2013-03-10 04:46:00,31.3,15.8,30.27,WSW,239,2.0,3.6,52,0.00,,,-99.99,FreeWX-Wi 1.01,2013-03-10 08:46:00,
2013-03-10 04:51:00,31.3,15.8,30.27,SSW,211,2.0,3.1,52,0.00,,,-99.99,FreeWX-Wi 1.01,2013-03-10 08:51:00,
2013-03-10 04:56:00,31.1,15.6,30.27,SSW,198,2.0,3.6,52,0.00,,,-99.99,FreeWX-Wi 1.01,2013-03-10 08:56:00,
2013-03-10 05:01:00,30.7,15.6,30.27,South,190,1.0,3.1,53,0.00,,,-99.99,FreeWX-Wi 1.01,2013-03-10 09:01:00,
2013-03-10 05:06:00,30.4,15.8,30.27,North,-999,0.0,3.1,54,0.00,,,-99.99,FreeWX-Wi 1.01,2013-03-10 09:06:00,
2013-03-10 05:11:00,30.4,15.3,30.27,SSW,196,1.0,5.8,53,0.00,,,-99.99,FreeWX-Wi 1.01,2013-03-10 09:11:00,
2013-03-10 05:16:00,30.9,15.4,30.27,SSW,195,1.0,6.7,52,0.00,,,-99.99,FreeWX-Wi 1.01,2013-03-10 09:16:00,
2013-03-10 05:21:00,31.1,15.1,30.27,South,181,2.0,6.3,51,0.00,,,-99.99,FreeWX-Wi 1.01,2013-03-10 09:21:00,
2013-03-10 05:26:00,31.3,15.3,30.27,South,182,2.0,6.3,51,0.00,,,-99.99,FreeWX-Wi 1.01,2013-03-10 09:26:00,
2013-03-10 05:31:00,31.3,14.9,30.27,South,185,2.0,5.8,50,0.00,,,-99.99,FreeWX-Wi 1.01,2013-03-10 09:31:00,
2013-03-10 05:36:00,30.7,14.7,30.27,SSW,205,2.0,0.0,51,0.00,,,-99.99,FreeWX-Wi 1.01,2013-03-10 09:36:00,
2013-03-10 05:41:00,30.7,14.7,30.27,West,264,2.0,3.1,51,0.00,,,-99.99,FreeWX-Wi 1.01,2013-03-10 09:41:00,
2013-03-10 05:46:00,30.9,15.4,30.27,WNW,289,1.0,4.0,52,0.00,,,-99.99,FreeWX-Wi 1.01,2013-03-10 09:46:00,
2013-03-10 05:51:00,30.7,14.7,30.27,WNW,289,1.0,3.6,51,0.00,,,-99.99,FreeWX-Wi 1.01,2013-03-10 09:51:00,
2013-03-10 05:56:00,30.9,14.9,30.27,WNW,292,1.0,4.9,51,0.00,,,-99.99,FreeWX-Wi 1.01,2013-03-10 09:56:00,
2013-03-10 06:01:00,31.3,14.9,30.27,West,263,1.0,5.4,50,0.00,,,-99.99,FreeWX-Wi 1.01,2013-03-10 10:01:00,
2013-03-10 06:06:00,31.8,14.9,30.27,SW,231,2.0,5.8,49,0.00,,,-99.99,FreeWX-Wi 1.01,2013-03-10 10:06:00,
2013-03-10 06:11:00,31.5,14.5,30.27,SSW,200,2.0,4.0,49,0.00,,,-99.99,FreeWX-Wi 1.01,2013-03-10 10:11:00,
2013-03-10 06:16:00,31.5,14.5,30.27,SSW,196,2.0,6.3,49,0.00,,,-99.99,FreeWX-Wi 1.01,2013-03-10 10:16:00,
2013-03-10 06:21:00,31.6,14.2,30.27,SSW,211,2.0,3.6,48,0.00,,,-99.99,FreeWX-Wi 1.01,2013-03-10 10:21:00,
2013-03-10 06:26:00,31.5,14.0,30.27,SW,219,1.0,4.0,48,0.00,,,-99.99,FreeWX-Wi 1.01,2013-03-10 10:26:00,
2013-03-10 06:31:00,31.3,13.8,30.27,SSW,205,1.0,3.6,48,0.00,,,-99.99,FreeWX-Wi 1.01,2013-03-10 10:31:00,
2013-03-10 06:36:00,31.3,13.8,30.27,SSW,200,1.0,4.0,48,0.00,,,-99.99,FreeWX-Wi 1.01,2013-03-10 10:36:00,
2013-03-10 06:41:00,31.6,13.8,30.27,SSW,200,2.0,6.3,47,0.00,,,-99.99,FreeWX-Wi 1.01,2013-03-10 10:41:00,
2013-03-10 06:46:00,32.2,13.3,30.27,South,186,2.0,8.7,45,0.00,,,-99.99,FreeWX-Wi 1.01,2013-03-10 10:46:00,
2013-03-10 06:51:00,32.4,12.9,30.27,South,173,3.0,7.2,44,0.00,,,-99.99,FreeWX-Wi 1.01,2013-03-10 10:51:00,
2013-03-10 06:56:00,32.7,12.7,30.27,SSE,167,4.0,8.3,43,0.00,,,-99.99,FreeWX-Wi 1.01,2013-03-10 10:56:00,
2013-03-10 07:01:00,32.9,12.9,30.27,South,178,4.0,8.1,43,0.00,,,-99.99,FreeWX-Wi 1.01,2013-03-10 11:01:00,
2013-03-10 07:06:00,33.1,13.1,30.27,South,183,4.0,6.3,43,0.00,,,-99.99,FreeWX-Wi 1.01,2013-03-10 11:06:00,
2013-03-10 07:11:00,33.3,12.7,30.27,South,186,5.0,9.6,42,0.00,,,-99.99,FreeWX-Wi 1.01,2013-03-10 11:11:00,
2013-03-10 07:16:00,33.4,12.9,30.27,SSW,195,4.0,8.1,42,0.00,,,-99.99,FreeWX-Wi 1.01,2013-03-10 11:16:00,
2013-03-10 07:21:00,33.3,12.7,30.27,SSW,203,4.0,5.4,42,0.00,,,-99.99,FreeWX-Wi 1.01,2013-03-10 11:21:00,
2013-03-10 07:26:00,33.1,12.6,30.27,SSW,206,4.0,5.4,42,0.00,,,-99.99,FreeWX-Wi 1.01,2013-03-10 11:26:00,
2013-03-10 07:31:00,33.1,12.6,30.27,SSW,204,4.0,8.3,42,0.00,,,-99.99,FreeWX-Wi 1.01,2013-03-10 11:31:00,
2013-03-10 07:36:00,33.1,12.6,30.27,SSW,200,4.0,8.1,42,0.00,,,-99.99,FreeWX-Wi 1.01,2013-03-10 11:36:00,
2013-03-10 07:41:00,33.1,12.6,30.27,SSW,199,4.0,6.3,42,0.00,,,-99.99,FreeWX-Wi 1.01,2013-03-10 11:41:00,
2013-03-10 07:46:00,33.1,12.6,30.27,SSW,194,4.0,8.7,42,0.00,,,-99.99,FreeWX-Wi 1.01,2013-03-10 11:46:00,
2013-03-10 07:51:00,33.1,12.6,30.27,SSW,193,4.0,8.7,42,0.00,,,-99.99,FreeWX-Wi 1.01,2013-03-10 11:51:00,
2013-03-10 07:56:00,33.3,12.7,30.27,SSW,195,4.0,8.3,42,0.00,,,-99.99,FreeWX-Wi 1.01,2013-03-10 11:56:00,
2013-03-10 08:01:00,33.4,12.4,30.27,SSW,198,4.0,9.6,41,0.00,,,-99.99,FreeWX-Wi 1.01,2013-03-10 12:01:00,
2013-03-10 08:06:00,33.8,12.6,30.27,SSW,206,5.0,11.0,41,0.00,,,-99.99,FreeWX-Wi 1.01,2013-03-10 12:06:00,
2013-03-10 08:11:00,34.3,12.6,30.27,SW,215,5.0,8.1,40,0.00,,,-99.99,FreeWX-Wi 1.01,2013-03-10 12:11:00,
2013-03-10 08:16:00,34.7,12.9,30.27,SW,225,5.0,8.3,40,0.00,,,-99.99,FreeWX-Wi 1.01,2013-03-10 12:16:00,
2013-03-10 08:21:00,35.2,13.3,30.27,SW,231,5.0,11.0,40,0.00,,,-99.99,FreeWX-Wi 1.01,2013-03-10 12:21:00,
2013-03-10 08:26:00,36.1,13.1,30.27,SW,236,5.0,8.1,38,0.00,,,-99.99,FreeWX-Wi 1.01,2013-03-10 12:26:00,
2013-03-10 08:31:00,37.0,12.6,30.27,WSW,240,5.0,6.3,36,0.00,,,-99.99,FreeWX-Wi 1.01,2013-03-10 12:31:00,
2013-03-10 08:36:00,37.2,13.5,30.27,WSW,243,5.0,9.2,37,0.00,,,-99.99,FreeWX-Wi 1.01,2013-03-10 12:36:00,
2013-03-10 08:41:00,36.7,12.9,30.27,WSW,243,4.0,4.0,37,0.00,,,-99.99,FreeWX-Wi 1.01,2013-03-10 12:41:00,
2013-03-10 08:46:00,37.4,11.7,30.27,WSW,241,4.0,8.7,34,0.00,,,-99.99,FreeWX-Wi 1.01,2013-03-10 12:46:00,
2013-03-10 08:51:00,38.5,11.3,30.27,WSW,240,4.0,9.2,32,0.00,,,-99.99,FreeWX-Wi 1.01,2013-03-10 12:51:00,
2013-03-10 08:57:00,38.8,11.5,30.27,WSW,239,4.0,8.3,32,0.00,,,-99.99,FreeWX-Wi 1.01,2013-03-10 12:57:00,
2013-03-10 09:02:00,39.4,11.3,30.27,WSW,238,5.0,12.8,31,0.00,,,-99.99,FreeWX-Wi 1.01,2013-03-10 13:02:00,
2013-03-10 09:07:00,39.7,11.7,30.27,SW,234,5.0,10.1,31,0.00,,,-99.99,FreeWX-Wi 1.01,2013-03-10 13:07:00,
2013-03-10 09:12:00,39.9,11.8,30.27,SW,234,6.0,8.7,31,0.00,,,-99.99,FreeWX-Wi 1.01,2013-03-10 13:12:00,
2013-03-10 09:17:00,40.3,11.3,30.27,SW,234,6.0,7.6,30,0.00,,,-99.99,FreeWX-Wi 1.01,2013-03-10 13:17:00,
2013-03-10 09:22:00,40.5,11.5,30.24,WSW,237,6.0,11.4,30,0.00,,,-99.99,FreeWX-Wi 1.01,2013-03-10 13:22:00,
2013-03-10 09:27:00,40.6,11.7,30.24,WSW,237,6.0,8.1,30,0.00,,,-99.99,FreeWX-Wi 1.01,2013-03-10 13:27:00,
2013-03-10 09:32:00,41.2,12.2,30.24,SW,234,5.0,8.7,30,0.00,,,-99.99,FreeWX-Wi 1.01,2013-03-10 13:32:00,
2013-03-10 09:37:00,41.5,11.7,30.24,SW,231,5.0,8.7,29,0.00,,,-99.99,FreeWX-Wi 1.01,2013-03-10 13:37:00,
2013-03-10 09:42:00,41.7,11.8,30.24,SW,226,5.0,8.7,29,0.00,,,-99.99,FreeWX-Wi 1.01,2013-03-10 13:42:00,
2013-03-10 09:47:00,42.1,12.2,30.24,SW,220,5.0,11.4,29,0.00,,,-99.99,FreeWX-Wi 1.01,2013-03-10 13:47:00,
2013-03-10 09:52:00,42.4,12.4,30.24,SSW,213,5.0,10.5,29,0.00,,,-99.99,FreeWX-Wi 1.01,2013-03-10 13:52:00,
2013-03-10 09:57:00,42.8,12.7,30.24,SSW,205,5.0,8.1,29,0.00,,,-99.99,FreeWX-Wi 1.01,2013-03-10 13:57:00,
2013-03-10 10:02:00,43.5,13.5,30.24,SSW,210,5.0,9.6,29,0.00,,,-99.99,FreeWX-Wi 1.01,2013-03-10 14:02:00,
2013-03-10 10:07:00,43.9,13.6,30.24,SW,217,5.0,8.3,29,0.00,,,-99.99,FreeWX-Wi 1.01,2013-03-10 14:07:00,
2013-03-10 10:12:00,41.9,16.3,30.24,SW,231,5.0,8.3,35,0.00,,,-99.99,FreeWX-Wi 1.01,2013-03-10 14:12:00,
2013-03-10 10:17:00,38.8,16.5,30.24,WSW,244,5.0,12.3,40,0.00,,,-99.99,FreeWX-Wi 1.01,2013-03-10 14:17:00,
2013-03-10 10:22:00,37.2,16.9,30.24,WSW,250,6.0,13.2,43,0.00,,,-99.99,FreeWX-Wi 1.01,2013-03-10 14:22:00,
2013-03-10 10:27:00,36.9,17.1,30.24,WSW,254,7.0,11.4,44,0.00,,,-99.99,FreeWX-Wi 1.01,2013-03-10 14:27:00,
2013-03-10 10:32:00,38.1,17.6,30.24,WSW,255,7.0,10.5,43,0.00,,,-99.99,FreeWX-Wi 1.01,2013-03-10 14:32:00,
2013-03-10 10:37:00,39.6,17.8,30.24,WSW,254,8.0,8.3,41,0.00,,,-99.99,FreeWX-Wi 1.01,2013-03-10 14:37:00,
2013-03-10 10:42:00,41.0,17.4,30.24,WSW,252,8.0,8.0,38,0.00,,,-99.99,FreeWX-Wi 1.01,2013-03-10 14:42:00,
2013-03-10 10:47:00,43.0,13.6,30.24,WSW,249,7.0,10.1,30,0.00,,,-99.99,FreeWX-Wi 1.01,2013-03-10 14:47:00,
2013-03-10 10:52:00,45.5,14.4,30.21,WSW,248,7.0,15.0,28,0.00,,,-99.99,FreeWX-Wi 1.01,2013-03-10 14:52:00,
2013-03-10 10:57:00,47.1,15.8,30.21,WSW,245,6.0,16.8,28,0.00,,,-99.99,FreeWX-Wi 1.01,2013-03-10 14:57:00,
2013-03-10 11:02:00,48.0,15.6,30.21,WSW,243,6.0,11.0,27,0.00,,,-99.99,FreeWX-Wi 1.01,2013-03-10 15:02:00,
2013-03-10 11:07:00,48.7,15.4,30.21,WSW,238,6.0,11.0,26,0.00,,,-99.99,FreeWX-Wi 1.01,2013-03-10 15:07:00,
2013-03-10 11:12:00,48.9,15.6,30.21,SW,230,7.0,12.3,26,0.00,,,-99.99,FreeWX-Wi 1.01,2013-03-10 15:12:00,
2013-03-10 11:17:00,49.3,15.8,30.21,SW,230,6.0,10.5,26,0.00,,,-99.99,FreeWX-Wi 1.01,2013-03-10 15:17:00,
2013-03-10 11:22:00,49.6,16.2,30.21,SW,231,6.0,8.7,26,0.00,,,-99.99,FreeWX-Wi 1.01,2013-03-10 15:22:00,
2013-03-10 11:27:00,50.2,16.7,30.21,SW,232,6.0,7.2,26,0.00,,,-99.99,FreeWX-Wi 1.01,2013-03-10 15:27:00,
2013-03-10 11:32:00,50.9,17.2,30.21,SW,228,6.0,8.3,26,0.00,,,-99.99,FreeWX-Wi 1.01,2013-03-10 15:32:00,
2013-03-10 11:37:00,50.9,15.4,30.21,SW,230,6.0,15.0,24,0.00,,,-99.99,FreeWX-Wi 1.01,2013-03-10 15:37:00,
2013-03-10 11:42:00,50.7,15.3,30.21,SW,229,6.0,14.1,24,0.00,,,-99.99,FreeWX-Wi 1.01,2013-03-10 15:42:00,
2013-03-10 11:47:00,50.7,15.3,30.21,SW,225,7.0,15.4,24,0.00,,,-99.99,FreeWX-Wi 1.01,2013-03-10 15:47:00,
2013-03-10 11:52:00,50.9,15.4,30.21,SW,225,7.0,13.6,24,0.00,,,-99.99,FreeWX-Wi 1.01,2013-03-10 15:52:00,
2013-03-10 11:57:00,51.1,15.6,30.21,SW,226,8.0,17.4,24,0.00,,,-99.99,FreeWX-Wi 1.01,2013-03-10 15:57:00,
2013-03-10 12:02:00,51.6,16.0,30.21,SW,225,9.0,15.0,24,0.00,,,-99.99,FreeWX-Wi 1.01,2013-03-10 16:02:00,
2013-03-10 12:07:00,51.8,15.3,30.21,SW,227,8.0,15.4,23,0.00,,,-99.99,FreeWX-Wi 1.01,2013-03-10 16:07:00,
2013-03-10 12:12:00,52.2,15.4,30.21,SW,227,8.0,12.8,23,0.00,,,-99.99,FreeWX-Wi 1.01,2013-03-10 16:12:00,
2013-03-10 12:17:00,52.7,13.8,30.21,SW,228,8.0,13.6,21,0.00,,,-99.99,FreeWX-Wi 1.01,2013-03-10 16:17:00,
2013-03-10 12:22:00,52.7,16.0,30.21,SW,228,8.0,14.5,23,0.00,,,-99.99,FreeWX-Wi 1.01,2013-03-10 16:22:00,
2013-03-10 12:27:00,52.5,15.8,30.21,SW,229,8.0,14.1,23,0.00,,,-99.99,FreeWX-Wi 1.01,2013-03-10 16:27:00,
2013-03-10 12:32:00,52.3,15.6,30.21,SW,230,7.0,10.5,23,0.00,,,-99.99,FreeWX-Wi 1.01,2013-03-10 16:32:00,
2013-03-10 12:37:00,52.2,15.4,30.21,SW,230,7.0,10.5,23,0.00,,,-99.99,FreeWX-Wi 1.01,2013-03-10 16:37:00,
2013-03-10 12:42:00,52.0,15.4,30.21,SW,235,7.0,10.5,23,0.00,,,-99.99,FreeWX-Wi 1.01,2013-03-10 16:42:00,
2013-03-10 12:47:00,51.8,13.1,30.21,SW,233,7.0,11.0,21,0.00,,,-99.99,FreeWX-Wi 1.01,2013-03-10 16:47:00,
2013-03-10 12:52:00,51.6,12.9,30.18,SW,229,7.0,15.0,21,0.00,,,-99.99,FreeWX-Wi 1.01,2013-03-10 16:52:00,
2013-03-10 12:57:00,51.8,13.1,30.18,SW,229,7.0,10.5,21,0.00,,,-99.99,FreeWX-Wi 1.01,2013-03-10 16:57:00,
2013-03-10 13:02:00,51.8,13.1,30.18,SW,231,6.0,9.2,21,0.00,,,-99.99,FreeWX-Wi 1.01,2013-03-10 17:02:00,
2013-03-10 13:07:00,51.8,13.1,30.18,SW,229,6.0,12.3,21,0.00,,,-99.99,FreeWX-Wi 1.01,2013-03-10 17:07:00,
2013-03-10 13:12:00,51.6,12.9,30.18,SW,227,6.0,11.0,21,0.00,,,-99.99,FreeWX-Wi 1.01,2013-03-10 17:12:00,
2013-03-10 13:17:00,51.6,12.9,30.18,SW,229,6.0,10.1,21,0.00,,,-99.99,FreeWX-Wi 1.01,2013-03-10 17:17:00,
2013-03-10 13:22:00,52.2,13.5,30.18,SW,231,6.0,11.0,21,0.00,,,-99.99,FreeWX-Wi 1.01,2013-03-10 17:22:00,
2013-03-10 13:27:00,52.9,14.0,30.18,SW,229,6.0,11.4,21,0.00,,,-99.99,FreeWX-Wi 1.01,2013-03-10 17:27:00,
2013-03-10 13:32:00,53.1,14.2,30.18,SW,225,7.0,17.4,21,0.00,,,-99.99,FreeWX-Wi 1.01,2013-03-10 17:32:00,
2013-03-10 13:37:00,53.2,14.4,30.15,SW,223,7.0,11.0,21,0.00,,,-99.99,FreeWX-Wi 1.01,2013-03-10 17:37:00,
2013-03-10 13:42:00,53.6,13.5,30.15,SW,223,6.0,8.1,20,0.00,,,-99.99,FreeWX-Wi 1.01,2013-03-10 17:42:00,
2013-03-10 13:47:00,54.5,14.2,30.15,SW,222,6.0,10.5,20,0.00,,,-99.99,FreeWX-Wi 1.01,2013-03-10 17:47:00,
2013-03-10 13:52:00,55.0,14.7,30.15,SW,225,6.0,10.1,20,0.00,,,-99.99,FreeWX-Wi 1.01,2013-03-10 17:52:00,
2013-03-10 13:57:00,55.6,15.1,30.15,SW,224,6.0,12.8,20,0.00,,,-99.99,FreeWX-Wi 1.01,2013-03-10 17:57:00,
2013-03-10 14:02:00,55.6,15.1,30.15,SW,222,6.0,12.8,20,0.00,,,-99.99,FreeWX-Wi 1.01,2013-03-10 18:02:00,
2013-03-10 14:07:00,55.8,15.3,30.15,SW,221,6.0,11.0,20,0.00,,,-99.99,FreeWX-Wi 1.01,2013-03-10 18:07:00,
2013-03-10 14:12:00,55.4,15.1,30.15,SW,221,6.0,16.3,20,0.00,,,-99.99,FreeWX-Wi 1.01,2013-03-10 18:12:00,
2013-03-10 14:17:00,55.4,15.1,30.15,SW,223,6.0,12.8,20,0.00,,,-99.99,FreeWX-Wi 1.01,2013-03-10 18:17:00,
2013-03-10 14:22:00,55.0,14.7,30.15,SW,218,7.0,14.1,20,0.00,,,-99.99,FreeWX-Wi 1.01,2013-03-10 18:22:00,
2013-03-10 14:27:00,54.7,14.4,30.15,SW,221,7.0,17.0,20,0.00,,,-99.99,FreeWX-Wi 1.01,2013-03-10 18:27:00,
2013-03-10 14:32:00,54.7,14.4,30.15,SW,220,8.0,15.0,20,0.00,,,-99.99,FreeWX-Wi 1.01,2013-03-10 18:32:00,
2013-03-10 14:37:00,54.5,14.2,30.15,SW,222,8.0,21.0,20,0.00,,,-99.99,FreeWX-Wi 1.01,2013-03-10 18:37:00,
2013-03-10 14:42:00,54.5,14.2,30.15,SW,221,8.0,13.6,20,0.00,,,-99.99,FreeWX-Wi 1.01,2013-03-10 18:42:00,
2013-03-10 14:47:00,55.0,14.7,30.15,SW,219,8.0,15.4,20,0.00,,,-99.99,FreeWX-Wi 1.01,2013-03-10 18:47:00,
2013-03-10 14:52:00,55.4,15.1,30.12,SW,216,8.0,8.1,20,0.00,,,-99.99,FreeWX-Wi 1.01,2013-03-10 18:52:00,
2013-03-10 14:57:00,55.2,14.9,30.12,SW,215,8.0,11.4,20,0.00,,,-99.99,FreeWX-Wi 1.01,2013-03-10 18:57:00,
2013-03-10 15:02:00,54.9,14.5,30.12,SW,216,7.0,11.9,20,0.00,,,-99.99,FreeWX-Wi 1.01,2013-03-10 19:02:00,
2013-03-10 15:07:00,54.7,14.4,30.12,SSW,213,6.0,10.1,20,0.00,,,-99.99,FreeWX-Wi 1.01,2013-03-10 19:07:00,
2013-03-10 15:12:00,54.3,14.2,30.12,SSW,213,6.0,13.2,20,0.00,,,-99.99,FreeWX-Wi 1.01,2013-03-10 19:12:00,
2013-03-10 15:17:00,54.1,14.0,30.12,SSW,212,6.0,10.1,20,0.00,,,-99.99,FreeWX-Wi 1.01,2013-03-10 19:17:00,
2013-03-10 15:22:00,54.1,14.0,30.12,SSW,213,6.0,13.2,20,0.00,,,-99.99,FreeWX-Wi 1.01,2013-03-10 19:22:00,
2013-03-10 15:27:00,54.0,13.8,30.12,SSW,213,6.0,8.7,20,0.00,,,-99.99,FreeWX-Wi 1.01,2013-03-10 19:27:00,
2013-03-10 15:32:00,53.6,13.5,30.12,SSW,213,6.0,11.0,20,0.00,,,-99.99,FreeWX-Wi 1.01,2013-03-10 19:32:00,
2013-03-10 15:37:00,53.6,13.5,30.09,SW,215,6.0,10.1,20,0.00,,,-99.99,FreeWX-Wi 1.01,2013-03-10 19:37:00,
2013-03-10 15:42:00,53.6,13.5,30.09,SW,215,6.0,11.4,20,0.00,,,-99.99,FreeWX-Wi 1.01,2013-03-10 19:42:00,
2013-03-10 15:47:00,53.6,13.5,30.09,SW,222,5.0,11.0,20,0.00,,,-99.99,FreeWX-Wi 1.01,2013-03-10 19:47:00,
2013-03-10 15:52:00,53.8,13.6,30.09,SW,222,6.0,12.3,20,0.00,,,-99.99,FreeWX-Wi 1.01,2013-03-10 19:52:00,
2013-03-10 15:57:00,53.8,13.6,30.09,SW,221,6.0,10.1,20,0.00,,,-99.99,FreeWX-Wi 1.01,2013-03-10 19:57:00,
2013-03-10 16:02:00,53.6,13.5,30.09,SW,222,6.0,13.2,20,0.00,,,-99.99,FreeWX-Wi 1.01,2013-03-10 20:02:00,
2013-03-10 16:07:00,53.6,13.5,30.09,SW,221,6.0,10.5,20,0.00,,,-99.99,FreeWX-Wi 1.01,2013-03-10 20:07:00,
2013-03-10 16:12:00,53.6,13.5,30.09,SW,218,7.0,15.4,20,0.00,,,-99.99,FreeWX-Wi 1.01,2013-03-10 20:12:00,
2013-03-10 16:17:00,53.4,14.5,30.09,SW,217,7.0,10.5,21,0.00,,,-99.99,FreeWX-Wi 1.01,2013-03-10 20:17:00,
2013-03-10 16:22:00,53.4,14.5,30.09,SW,219,7.0,9.6,21,0.00,,,-99.99,FreeWX-Wi 1.01,2013-03-10 20:22:00,
2013-03-10 16:28:00,53.8,13.6,30.09,SW,221,7.0,13.2,20,0.00,,,-99.99,FreeWX-Wi 1.01,2013-03-10 20:28:00,
2013-03-10 16:33:00,54.1,14.0,30.09,SW,223,7.0,12.3,20,0.00,,,-99.99,FreeWX-Wi 1.01,2013-03-10 20:33:00,
2013-03-10 16:38:00,54.3,14.2,30.09,SW,223,7.0,8.7,20,0.00,,,-99.99,FreeWX-Wi 1.01,2013-03-10 20:38:00,
2013-03-10 16:43:00,54.3,14.2,30.09,SW,222,7.0,11.4,20,0.00,,,-99.99,FreeWX-Wi 1.01,2013-03-10 20:43:00,
2013-03-10 16:48:00,54.5,14.2,30.09,SW,221,6.0,13.2,20,0.00,,,-99.99,FreeWX-Wi 1.01,2013-03-10 20:48:00,
2013-03-10 16:53:00,54.3,14.2,30.09,SW,221,6.0,12.8,20,0.00,,,-99.99,FreeWX-Wi 1.01,2013-03-10 20:53:00,
2013-03-10 16:58:00,54.1,14.0,30.09,SW,220,6.0,15.0,20,0.00,,,-99.99,FreeWX-Wi 1.01,2013-03-10 20:58:00,
2013-03-10 17:03:00,54.0,13.8,30.09,SW,220,7.0,13.2,20,0.00,,,-99.99,FreeWX-Wi 1.01,2013-03-10 21:03:00,
2013-03-10 17:08:00,53.8,13.6,30.09,SW,222,7.0,15.0,20,0.00,,,-99.99,FreeWX-Wi 1.01,2013-03-10 21:08:00,
2013-03-10 17:13:00,53.8,13.6,30.09,SW,224,7.0,15.0,20,0.00,,,-99.99,FreeWX-Wi 1.01,2013-03-10 21:13:00,
2013-03-10 17:18:00,53.4,14.5,30.09,SW,223,8.0,14.5,21,0.00,,,-99.99,FreeWX-Wi 1.01,2013-03-10 21:18:00,
2013-03-10 17:23:00,53.2,14.4,30.06,SW,228,8.0,15.0,21,0.00,,,-99.99,FreeWX-Wi 1.01,2013-03-10 21:23:00,
2013-03-10 17:28:00,52.9,14.0,30.06,SW,230,8.0,15.4,21,0.00,,,-99.99,FreeWX-Wi 1.01,2013-03-10 21:28:00,
2013-03-10 17:33:00,52.9,14.0,30.06,SW,229,8.0,10.5,21,0.00,,,-99.99,FreeWX-Wi 1.01,2013-03-10 21:33:00,
2013-03-10 17:38:00,52.7,13.8,30.06,SW,231,8.0,15.9,21,0.00,,,-99.99,FreeWX-Wi 1.01,2013-03-10 21:38:00,
2013-03-10 17:43:00,52.5,13.8,30.06,SW,232,8.0,12.8,21,0.00,,,-99.99,FreeWX-Wi 1.01,2013-03-10 21:43:00,
2013-03-10 17:48:00,52.5,13.8,30.06,SW,232,8.0,11.0,21,0.00,,,-99.99,FreeWX-Wi 1.01,2013-03-10 21:48:00,
2013-03-10 17:53:00,52.5,13.8,30.06,SW,227,7.0,15.0,21,0.00,,,-99.99,FreeWX-Wi 1.01,2013-03-10 21:53:00,
2013-03-10 17:58:00,52.5,13.8,30.06,SW,220,7.0,10.5,21,0.00,,,-99.99,FreeWX-Wi 1.01,2013-03-10 21:58:00,
2013-03-10 18:03:00,52.7,13.8,30.06,SW,218,7.0,16.3,21,0.00,,,-99.99,FreeWX-Wi 1.01,2013-03-10 22:03:00,
2013-03-10 18:08:00,52.9,14.0,30.03,SSW,211,7.0,13.2,21,0.00,,,-99.99,FreeWX-Wi 1.01,2013-03-10 22:08:00,
2013-03-10 18:13:00,52.9,14.0,30.03,SSW,208,7.0,8.7,21,0.00,,,-99.99,FreeWX-Wi 1.01,2013-03-10 22:13:00,
2013-03-10 18:18:00,52.9,14.0,30.03,SSW,211,7.0,9.6,21,0.00,,,-99.99,FreeWX-Wi 1.01,2013-03-10 22:18:00,
2013-03-10 18:23:00,52.7,13.8,30.06,SW,219,7.0,15.0,21,0.00,,,-99.99,FreeWX-Wi 1.01,2013-03-10 22:23:00,
2013-03-10 18:28:00,52.5,13.8,30.06,SW,225,7.0,17.4,21,0.00,,,-99.99,FreeWX-Wi 1.01,2013-03-10 22:28:00,
2013-03-10 18:33:00,52.5,13.8,30.06,SW,225,7.0,12.8,21,0.00,,,-99.99,FreeWX-Wi 1.01,2013-03-10 22:33:00,
2013-03-10 18:38:00,52.3,13.6,30.06,SW,230,6.0,10.1,21,0.00,,,-99.99,FreeWX-Wi 1.01,2013-03-10 22:38:00,
2013-03-10 18:43:00,52.2,13.5,30.06,SW,230,7.0,17.9,21,0.00,,,-99.99,FreeWX-Wi 1.01,2013-03-10 22:43:00,
2013-03-10 18:48:00,52.0,13.3,30.06,SW,226,7.0,13.2,21,0.00,,,-99.99,FreeWX-Wi 1.01,2013-03-10 22:48:00,
2013-03-10 18:53:00,52.0,13.3,30.06,SW,222,8.0,14.1,21,0.00,,,-99.99,FreeWX-Wi 1.01,2013-03-10 22:53:00,
2013-03-10 18:58:00,51.8,13.1,30.06,SW,220,7.0,11.0,21,0.00,,,-99.99,FreeWX-Wi 1.01,2013-03-10 22:58:00,
2013-03-10 19:03:00,51.8,13.1,30.06,SW,221,7.0,14.1,21,0.00,,,-99.99,FreeWX-Wi 1.01,2013-03-10 23:03:00,
2013-03-10 19:08:00,51.8,13.1,30.06,SW,220,8.0,17.0,21,0.00,,,-99.99,FreeWX-Wi 1.01,2013-03-10 23:08:00,
2013-03-10 19:13:00,51.6,12.9,30.06,SW,223,8.0,17.0,21,0.00,,,-99.99,FreeWX-Wi 1.01,2013-03-10 23:13:00,
2013-03-10 19:18:00,51.4,12.7,30.06,SW,226,8.0,15.0,21,0.00,,,-99.99,FreeWX-Wi 1.01,2013-03-10 23:18:00,
2013-03-10 19:23:00,51.4,12.7,30.06,SW,226,8.0,18.3,21,0.00,,,-99.99,FreeWX-Wi 1.01,2013-03-10 23:23:00,
2013-03-10 19:28:00,51.3,12.7,30.06,SW,227,8.0,15.0,21,0.00,,,-99.99,FreeWX-Wi 1.01,2013-03-10 23:28:00,
2013-03-10 19:33:00,51.3,12.7,30.06,SW,227,9.0,12.8,21,0.00,,,-99.99,FreeWX-Wi 1.01,2013-03-10 23:33:00,
2013-03-10 19:38:00,51.1,12.6,30.06,SW,227,8.0,12.3,21,0.00,,,-99.99,FreeWX-Wi 1.01,2013-03-10 23:38:00,
2013-03-10 19:43:00,51.1,12.6,30.06,SW,224,8.0,11.4,21,0.00,,,-99.99,FreeWX-Wi 1.01,2013-03-10 23:43:00,
2013-03-10 19:48:00,51.1,12.6,30.06,SW,223,8.0,12.8,21,0.00,,,-99.99,FreeWX-Wi 1.01,2013-03-10 23:48:00,
2013-03-10 19:53:00,51.1,12.6,30.06,SW,223,8.0,15.0,21,0.00,,,-99.99,FreeWX-Wi 1.01,2013-03-10 23:53:00,
2013-03-10 19:58:00,51.1,12.6,30.06,SW,224,8.0,12.3,21,0.00,,,-99.99,FreeWX-Wi 1.01,2013-03-10 23:58:00,
2013-03-10 20:03:00,50.9,12.4,30.06,SW,226,7.0,11.0,21,0.00,,,-99.99,FreeWX-Wi 1.01,2013-03-11 00:03:00,
2013-03-10 20:08:00,50.9,12.4,30.06,SW,225,7.0,13.2,21,0.00,,,-99.99,FreeWX-Wi 1.01,2013-03-11 00:08:00,
2013-03-10 20:13:00,50.9,12.4,30.06,SW,224,7.0,15.0,21,0.00,,,-99.99,FreeWX-Wi 1.01,2013-03-11 00:13:00,
2013-03-10 20:18:00,50.9,12.4,30.06,SW,223,7.0,12.8,21,0.00,,,-99.99,FreeWX-Wi 1.01,2013-03-11 00:18:00,
2013-03-10 20:23:00,50.7,15.3,30.06,SW,224,7.0,10.5,24,0.00,,,-99.99,FreeWX-Wi 1.01,2013-03-11 00:23:00,
2013-03-10 20:28:00,50.7,15.3,30.06,SW,224,7.0,12.8,24,0.00,,,-99.99,FreeWX-Wi 1.01,2013-03-11 00:28:00,
2013-03-10 20:33:00,50.7,15.3,30.06,SW,222,7.0,13.2,24,0.00,,,-99.99,FreeWX-Wi 1.01,2013-03-11 00:33:00,
2013-03-10 20:38:00,50.5,15.1,30.06,SW,221,7.0,11.0,24,0.00,,,-99.99,FreeWX-Wi 1.01,2013-03-11 00:38:00,
2013-03-10 20:43:00,50.4,14.9,30.06,SW,219,7.0,11.0,24,0.00,,,-99.99,FreeWX-Wi 1.01,2013-03-11 00:43:00,
2013-03-10 20:48:00,50.4,14.9,30.06,SW,219,7.0,13.2,24,0.00,,,-99.99,FreeWX-Wi 1.01,2013-03-11 00:48:00,
2013-03-10 20:53:00,50.2,14.7,30.06,SW,217,7.0,12.3,24,0.00,,,-99.99,FreeWX-Wi 1.01,2013-03-11 00:53:00,
2013-03-10 20:58:00,50.2,14.7,30.06,SW,215,6.0,17.4,24,0.00,,,-99.99,FreeWX-Wi 1.01,2013-03-11 00:58:00,
2013-03-10 21:03:00,50.0,14.7,30.06,SW,216,6.0,15.4,24,0.00,,,-99.99,FreeWX-Wi 1.01,2013-03-11 01:03:00,
2013-03-10 21:08:00,50.0,14.7,30.06,SW,220,6.0,11.0,24,0.00,,,-99.99,FreeWX-Wi 1.01,2013-03-11 01:08:00,
2013-03-10 21:14:00,49.8,14.5,30.06,SW,226,6.0,15.0,24,0.00,,,-99.99,FreeWX-Wi 1.01,2013-03-11 01:14:00,
2013-03-10 21:19:00,49.8,14.5,30.06,SW,227,6.0,15.0,24,0.00,,,-99.99,FreeWX-Wi 1.01,2013-03-11 01:19:00,
2013-03-10 21:24:00,50.0,14.7,30.06,SW,228,6.0,11.0,24,0.00,,,-99.99,FreeWX-Wi 1.01,2013-03-11 01:24:00,
2013-03-10 21:29:00,49.8,14.5,30.06,SW,229,6.0,8.3,24,0.00,,,-99.99,FreeWX-Wi 1.01,2013-03-11 01:29:00,
2013-03-10 21:34:00,49.8,14.5,30.06,SW,229,6.0,12.3,24,0.00,,,-99.99,FreeWX-Wi 1.01,2013-03-11 01:34:00,
2013-03-10 21:39:00,49.6,14.4,30.09,SW,227,7.0,13.2,24,0.00,,,-99.99,FreeWX-Wi 1.01,2013-03-11 01:39:00,
2013-03-10 21:44:00,49.6,14.4,30.09,SW,221,7.0,15.0,24,0.00,,,-99.99,FreeWX-Wi 1.01,2013-03-11 01:44:00,
2013-03-10 21:49:00,49.8,14.5,30.09,SW,219,7.0,15.0,24,0.00,,,-99.99,FreeWX-Wi 1.01,2013-03-11 01:49:00,
2013-03-10 21:54:00,49.8,14.5,30.06,SW,219,7.0,12.3,24,0.00,,,-99.99,FreeWX-Wi 1.01,2013-03-11 01:54:00,
2013-03-10 21:59:00,49.6,14.4,30.06,SW,220,7.0,13.2,24,0.00,,,-99.99,FreeWX-Wi 1.01,2013-03-11 01:59:00,
2013-03-10 22:04:00,49.5,14.2,30.06,SW,219,7.0,12.8,24,0.00,,,-99.99,FreeWX-Wi 1.01,2013-03-11 02:04:00,
2013-03-10 22:09:00,49.5,14.2,30.09,SW,217,7.0,11.9,24,0.00,,,-99.99,FreeWX-Wi 1.01,2013-03-11 02:09:00,
2013-03-10 22:14:00,49.5,14.2,30.09,SW,216,7.0,13.6,24,0.00,,,-99.99,FreeWX-Wi 1.01,2013-03-11 02:14:00,
2013-03-10 22:19:00,49.5,14.2,30.09,SW,214,7.0,12.8,24,0.00,,,-99.99,FreeWX-Wi 1.01,2013-03-11 02:19:00,
2013-03-10 22:24:00,49.5,14.2,30.06,SW,215,7.0,13.2,24,0.00,,,-99.99,FreeWX-Wi 1.01,2013-03-11 02:24:00,
2013-03-10 22:29:00,49.6,14.4,30.06,SSW,212,7.0,12.8,24,0.00,,,-99.99,FreeWX-Wi 1.01,2013-03-11 02:29:00,
2013-03-10 22:34:00,49.6,14.4,30.06,SSW,212,7.0,11.0,24,0.00,,,-99.99,FreeWX-Wi 1.01,2013-03-11 02:34:00,
2013-03-10 22:39:00,49.6,14.4,30.09,SW,215,7.0,10.1,24,0.00,,,-99.99,FreeWX-Wi 1.01,2013-03-11 02:39:00,
2013-03-10 22:44:00,49.6,14.4,30.09,SW,214,7.0,15.0,24,0.00,,,-99.99,FreeWX-Wi 1.01,2013-03-11 02:44:00,
2013-03-10 22:49:00,49.6,14.4,30.09,SW,216,7.0,8.7,24,0.00,,,-99.99,FreeWX-Wi 1.01,2013-03-11 02:49:00,
2013-03-10 22:54:00,49.6,14.4,30.09,SW,216,7.0,15.0,24,0.00,,,-99.99,FreeWX-Wi 1.01,2013-03-11 02:54:00,
2013-03-10 22:59:00,49.6,14.4,30.09,SW,214,7.0,11.4,24,0.00,,,-99.99,FreeWX-Wi 1.01,2013-03-11 02:59:00,
2013-03-10 23:04:00,49.5,14.2,30.09,SW,214,7.0,23.3,24,0.00,,,-99.99,FreeWX-Wi 1.01,2013-03-11 03:04:00,
2013-03-10 23:09:00,49.5,14.2,30.09,SSW,211,8.0,15.4,24,0.00,,,-99.99,FreeWX-Wi 1.01,2013-03-11 03:09:00,
2013-03-10 23:14:00,49.5,14.2,30.09,SW,214,8.0,11.9,24,0.00,,,-99.99,FreeWX-Wi 1.01,2013-03-11 03:14:00,
2013-03-10 23:19:00,49.5,14.2,30.09,SSW,212,8.0,16.3,24,0.00,,,-99.99,FreeWX-Wi 1.01,2013-03-11 03:19:00,
2013-03-10 23:24:00,49.5,16.0,30.09,SW,215,8.0,12.8,26,0.00,,,-99.99,FreeWX-Wi 1.01,2013-03-11 03:24:00,
2013-03-10 23:29:00,49.5,16.0,30.09,SW,215,8.0,14.5,26,0.00,,,-99.99,FreeWX-Wi 1.01,2013-03-11 03:29:00,
2013-03-10 23:34:00,49.5,14.2,30.09,SW,214,8.0,15.0,24,0.00,,,-99.99,FreeWX-Wi 1.01,2013-03-11 03:34:00,
2013-03-10 23:39:00,49.5,16.0,30.09,SW,214,8.0,17.4,26,0.00,,,-99.99,FreeWX-Wi 1.01,2013-03-11 03:39:00,
2013-03-10 23:44:00,49.5,16.0,30.09,SW,217,8.0,13.2,26,0.00,,,-99.99,FreeWX-Wi 1.01,2013-03-11 03:44:00,
2013-03-10 23:49:00,49.3,15.8,30.09,SW,216,8.0,17.4,26,0.00,,,-99.99,FreeWX-Wi 1.01,2013-03-11 03:49:00,
2013-03-10 23:54:00,49.3,15.8,30.09,SW,216,8.0,13.2,26,0.00,,,-99.99,FreeWX-Wi 1.01,2013-03-11 03:54:00,
2013-03-10 23:59:00,49.1,15.8,30.09,SW,214,8.0,13.2,26,0.00,,,-99.99,FreeWX-Wi 1.01,2013-03-11 03:59:00,